createdAt,value
2023-08-18T00:01:15.774Z,36.53
2023-08-18T00:03:42.361Z,31.90
2023-08-18T00:06:08.956Z,36.63
2023-08-18T00:08:36.770Z,33.78
2023-08-18T00:11:03.310Z,41.50
2023-08-18T00:13:29.740Z,32.67
2023-08-18T00:15:56.377Z,38.40
2023-08-18T00:18:22.871Z,37.90
2023-08-18T00:20:50.481Z,36.70
2023-08-18T00:23:17.025Z,41.22
2023-08-18T00:25:44.844Z,45.60
2023-08-18T00:28:11.859Z,36.08
2023-08-18T00:30:38.288Z,39.95
2023-08-18T00:33:05.056Z,35.88
2023-08-18T00:35:31.616Z,42.28
2023-08-18T00:37:58.051Z,39.13
2023-08-18T00:40:24.657Z,35.88
2023-08-18T00:42:52.471Z,43.65
2023-08-18T00:45:19.002Z,46.97
2023-08-18T00:47:45.568Z,43.45
2023-08-18T00:50:12.572Z,41.25
2023-08-18T00:52:39.480Z,45.72
2023-08-18T00:55:06.801Z,38.17
2023-08-18T00:57:33.992Z,40.28
2023-08-18T01:00:05.139Z,43.83
2023-08-18T01:02:31.582Z,37.25
2023-08-18T01:05:00.684Z,43.35
2023-08-18T01:07:27.398Z,37.58
2023-08-18T01:09:54.402Z,43.95
2023-08-18T01:12:24.847Z,33.15
2023-08-18T01:14:55.468Z,36.33
2023-08-18T01:17:26.724Z,42.60
2023-08-18T01:19:53.622Z,47.33
2023-08-18T01:22:20.173Z,44.88
2023-08-18T01:24:47.992Z,39.88
2023-08-18T01:27:14.429Z,38.97
2023-08-18T01:29:41.020Z,51.17
2023-08-18T01:32:08.425Z,44.60
2023-08-18T01:34:36.322Z,47.95
2023-08-18T01:37:03.269Z,48.53
2023-08-18T01:39:31.051Z,40.20
2023-08-18T01:41:59.323Z,45.60
2023-08-18T01:44:25.770Z,39.33
2023-08-18T01:46:52.218Z,50.05
2023-08-18T01:49:18.687Z,45.63
2023-08-18T01:51:45.128Z,42.40
2023-08-18T01:54:11.600Z,37.97
2023-08-18T01:56:38.063Z,39.97
2023-08-18T01:59:05.841Z,41.92
2023-08-18T02:01:32.330Z,43.42
2023-08-18T02:03:58.930Z,39.85
2023-08-18T02:06:25.457Z,43.40
2023-08-18T02:08:51.862Z,51.95
2023-08-18T02:11:18.300Z,53.25
2023-08-18T02:13:44.768Z,51.35
2023-08-18T02:16:12.615Z,56.17
2023-08-18T02:18:39.142Z,47.10
2023-08-18T02:21:05.592Z,38.92
2023-08-18T02:23:31.992Z,41.90
2023-08-18T02:26:01.629Z,42.22
2023-08-18T02:28:28.022Z,37.60
2023-08-18T02:30:59.362Z,44.05
2023-08-18T02:33:27.161Z,40.20
2023-08-18T02:35:53.573Z,38.67
2023-08-18T02:38:20.149Z,36.53
2023-08-18T02:40:46.576Z,41.60
2023-08-18T02:43:13.088Z,35.22
2023-08-18T02:45:39.536Z,41.55
2023-08-18T02:48:06.420Z,35.88
2023-08-18T02:50:34.247Z,39.45
2023-08-18T02:53:00.701Z,42.08
2023-08-18T02:55:27.479Z,38.08
2023-08-18T02:57:53.942Z,40.95
2023-08-18T03:00:20.462Z,42.45
2023-08-18T03:02:46.907Z,45.45
2023-08-18T03:05:13.540Z,39.15
2023-08-18T03:07:41.325Z,41.03
2023-08-18T03:10:08.485Z,38.33
2023-08-18T03:12:34.904Z,43.55
2023-08-18T03:15:01.423Z,42.15
2023-08-18T03:17:28.086Z,44.15
2023-08-18T03:19:54.811Z,39.88
2023-08-18T03:22:21.191Z,40.70
2023-08-18T03:24:49.593Z,49.03
2023-08-18T03:27:16.149Z,41.10
2023-08-18T03:29:42.539Z,45.80
2023-08-18T03:32:09.269Z,45.67
2023-08-18T03:34:35.670Z,41.22
2023-08-18T03:37:02.150Z,40.30
2023-08-18T03:39:28.610Z,47.08
2023-08-18T03:41:56.397Z,37.75
2023-08-18T03:44:22.899Z,45.28
2023-08-18T03:46:49.322Z,39.38
2023-08-18T03:49:15.749Z,45.40
2023-08-18T03:51:42.193Z,42.35
2023-08-18T03:54:08.623Z,37.78
2023-08-18T03:56:35.033Z,52.45
2023-08-18T03:59:02.907Z,45.03
2023-08-18T04:01:29.370Z,41.40
2023-08-18T04:03:57.415Z,42.20
2023-08-18T04:06:23.855Z,37.10
2023-08-18T04:09:02.156Z,34.72
2023-08-18T04:11:28.624Z,39.10
2023-08-18T04:13:55.024Z,36.28
2023-08-18T04:16:22.880Z,35.63
2023-08-18T04:18:49.303Z,38.20
2023-08-18T04:21:15.769Z,33.90
2023-08-18T04:23:42.242Z,46.03
2023-08-18T04:26:08.696Z,37.50
2023-08-18T04:28:35.114Z,34.25
2023-08-18T04:31:01.615Z,33.13
2023-08-18T04:33:29.462Z,33.20
2023-08-18T04:35:55.922Z,38.20
2023-08-18T04:38:22.363Z,38.70
2023-08-18T04:40:56.587Z,33.63
2023-08-18T04:43:23.001Z,35.95
2023-08-18T04:45:49.441Z,32.80
2023-08-18T04:48:15.947Z,31.95
2023-08-18T04:50:43.904Z,35.05
2023-08-18T04:53:10.340Z,41.55
2023-08-18T04:55:36.773Z,31.20
2023-08-18T04:58:03.468Z,33.38
2023-08-18T05:00:30.201Z,35.13
2023-08-18T05:02:56.681Z,33.83
2023-08-18T05:05:23.198Z,36.13
2023-08-18T05:07:51.021Z,32.65
2023-08-18T05:10:17.518Z,37.22
2023-08-18T05:12:43.946Z,34.47
2023-08-18T05:15:10.570Z,32.42
2023-08-18T05:17:37.148Z,43.28
2023-08-18T05:20:03.838Z,34.45
2023-08-18T05:22:30.599Z,40.85
2023-08-18T05:24:58.540Z,39.47
2023-08-18T05:27:25.056Z,39.90
2023-08-18T05:29:51.531Z,34.10
2023-08-18T05:32:17.986Z,36.33
2023-08-18T05:34:44.435Z,37.88
2023-08-18T05:37:10.904Z,35.05
2023-08-18T05:39:38.728Z,35.40
2023-08-18T05:42:06.843Z,33.08
2023-08-18T05:44:33.313Z,35.67
2023-08-18T05:46:59.709Z,41.15
2023-08-18T05:49:26.182Z,36.75
2023-08-18T05:51:52.648Z,38.30
2023-08-18T05:54:19.132Z,43.15
2023-08-18T05:56:45.581Z,39.13
2023-08-18T05:59:13.414Z,47.95
2023-08-18T06:01:39.871Z,37.83
2023-08-18T06:04:06.611Z,41.03
2023-08-18T06:06:33.164Z,38.90
2023-08-18T06:08:59.606Z,33.65
2023-08-18T06:11:26.010Z,31.70
2023-08-18T06:13:52.483Z,40.13
2023-08-18T06:16:20.327Z,33.33
2023-08-18T06:18:46.905Z,35.95
2023-08-18T06:21:13.419Z,38.63
2023-08-18T06:23:39.861Z,37.53
2023-08-18T06:26:06.326Z,32.55
2023-08-18T06:28:32.787Z,33.30
2023-08-18T06:31:05.803Z,35.28
2023-08-18T06:33:33.913Z,36.70
2023-08-18T06:36:00.423Z,37.40
2023-08-18T06:38:26.887Z,38.10
2023-08-18T06:40:53.329Z,35.25
2023-08-18T06:43:21.550Z,40.10
2023-08-18T06:45:47.988Z,36.53
2023-08-18T06:48:14.400Z,40.10
2023-08-18T06:50:42.220Z,39.35
2023-08-18T06:53:08.722Z,36.42
2023-08-18T06:55:36.631Z,42.97
2023-08-18T06:58:14.146Z,39.42
2023-08-18T07:00:40.632Z,33.30
2023-08-18T07:03:07.088Z,36.53
2023-08-18T07:05:33.601Z,30.95
2023-08-18T07:08:01.408Z,40.22
2023-08-18T07:10:28.293Z,34.42
2023-08-18T07:12:55.231Z,35.22
2023-08-18T07:15:30.872Z,25.63
2023-08-18T07:17:58.550Z,29.80
2023-08-18T07:20:28.850Z,29.02
2023-08-18T07:22:58.275Z,23.65
2023-08-18T07:25:31.834Z,20.67
2023-08-18T07:28:00.559Z,22.92
2023-08-18T07:30:28.049Z,28.73
2023-08-18T07:32:54.620Z,26.45
2023-08-18T07:35:21.198Z,28.40
2023-08-18T07:40:23.444Z,26.80
2023-08-18T07:42:56.041Z,30.10
2023-08-18T07:45:22.776Z,24.20
2023-08-18T07:47:52.182Z,27.48
2023-08-18T07:50:21.097Z,26.67
2023-08-18T07:52:47.629Z,25.08
2023-08-18T07:55:15.988Z,28.23
2023-08-18T07:57:43.370Z,38.45
2023-08-18T08:00:12.141Z,34.50
2023-08-18T08:02:39.545Z,25.17
2023-08-18T08:05:11.796Z,35.95
2023-08-18T08:07:43.701Z,35.28
2023-08-18T08:10:19.649Z,32.28
2023-08-18T08:12:49.642Z,29.23
2023-08-18T08:15:21.362Z,29.77
2023-08-18T08:18:12.700Z,31.70
2023-08-18T08:20:43.216Z,134.25
2023-08-18T08:23:13.003Z,15.43
2023-08-18T08:25:42.711Z,30.67
2023-08-18T08:28:18.618Z,35.75
2023-08-18T09:15:13.340Z,31.00
2023-08-18T09:24:04.949Z,41.20
2023-08-18T09:26:51.130Z,31.60
2023-08-18T09:29:22.043Z,30.83
2023-08-18T09:32:12.506Z,26.95
2023-08-18T09:34:45.085Z,26.25
2023-08-18T09:37:24.876Z,32.47
2023-08-18T09:39:57.740Z,27.75
2023-08-18T09:42:29.248Z,35.65
2023-08-18T09:44:59.100Z,26.92
2023-08-18T09:47:29.066Z,22.10
2023-08-18T09:49:57.723Z,24.70
2023-08-18T09:52:27.277Z,24.48
2023-08-18T09:55:01.295Z,29.23
2023-08-18T09:57:38.737Z,22.38
2023-08-18T10:00:12.464Z,27.90
2023-08-18T10:02:43.812Z,33.60
2023-08-18T10:05:16.209Z,27.33
2023-08-18T10:07:55.285Z,26.60
2023-08-18T10:13:05.146Z,20.42
2023-08-18T10:15:36.497Z,23.65
2023-08-18T10:18:05.768Z,28.42
2023-08-18T10:20:37.786Z,21.50
2023-08-18T10:23:07.454Z,19.92
2023-08-18T10:25:41.968Z,21.83
2023-08-18T10:28:10.393Z,20.85
2023-08-18T10:30:38.852Z,22.02
2023-08-18T10:33:06.569Z,18.98
2023-08-18T10:35:36.957Z,27.20
2023-08-18T10:38:06.427Z,24.25
2023-08-18T10:40:38.086Z,23.92
2023-08-18T10:43:07.453Z,25.67
2023-08-18T10:45:34.540Z,22.48
2023-08-18T10:48:11.634Z,26.88
2023-08-18T10:51:08.896Z,24.35
2023-08-18T10:53:41.534Z,27.50
2023-08-18T10:56:14.332Z,20.55
2023-08-18T10:58:43.743Z,20.40
2023-08-18T11:01:10.458Z,24.38
2023-08-18T11:03:37.267Z,28.95
2023-08-18T11:06:05.469Z,23.67
2023-08-18T11:08:35.057Z,30.10
2023-08-18T11:11:03.131Z,24.48
2023-08-18T11:13:32.910Z,26.70
2023-08-18T11:16:15.088Z,25.15
2023-08-18T11:18:42.366Z,24.35
2023-08-18T11:21:12.074Z,19.38
2023-08-18T11:23:47.768Z,26.25
2023-08-18T11:29:26.306Z,18.63
2023-08-18T11:29:27.426Z,23.35
2023-08-18T11:31:54.114Z,17.83
2023-08-18T11:34:28.134Z,25.35
2023-08-18T11:37:03.654Z,23.15
2023-08-18T11:39:30.680Z,29.90
2023-08-18T11:41:59.569Z,22.35
2023-08-18T11:44:33.653Z,23.60
2023-08-18T11:47:00.953Z,19.98
2023-08-18T11:49:27.527Z,21.85
2023-08-18T11:51:57.435Z,18.73
2023-08-18T11:54:32.844Z,18.25
2023-08-18T11:57:22.458Z,21.88
2023-08-18T12:00:05.350Z,21.65
2023-08-18T12:02:35.255Z,19.65
2023-08-18T12:05:20.228Z,20.92
2023-08-18T12:07:47.020Z,21.58
2023-08-18T12:10:20.802Z,24.25
2023-08-18T12:12:55.986Z,21.63
2023-08-18T12:15:44.337Z,21.20
2023-08-18T12:18:14.020Z,17.30
2023-08-18T12:20:40.663Z,23.50
2023-08-18T12:23:20.463Z,20.20
2023-08-18T12:28:40.254Z,21.50
2023-08-18T12:31:08.731Z,20.52
2023-08-18T12:33:40.638Z,18.10
2023-08-18T12:36:12.915Z,24.13
2023-08-18T12:38:45.002Z,20.10
2023-08-18T12:41:14.056Z,25.75
2023-08-18T12:43:40.948Z,22.50
2023-08-18T12:46:09.091Z,21.58
2023-08-18T12:49:02.033Z,20.48
2023-08-18T12:51:51.089Z,27.23
2023-08-18T12:54:23.522Z,20.48
2023-08-18T12:56:58.500Z,22.83
2023-08-18T12:59:28.836Z,24.95
2023-08-18T13:02:00.603Z,18.85
2023-08-18T13:04:28.080Z,18.30
2023-08-18T13:06:56.080Z,19.58
2023-08-18T13:09:23.160Z,27.83
2023-08-18T13:11:49.894Z,20.95
2023-08-18T13:14:16.316Z,19.63
2023-08-18T13:16:50.448Z,18.33
2023-08-18T13:19:18.498Z,25.23
2023-08-18T13:21:47.799Z,22.17
2023-08-18T13:24:14.865Z,24.75
2023-08-18T13:26:41.419Z,22.85
2023-08-18T13:29:09.154Z,19.35
2023-08-18T13:31:35.656Z,20.80
2023-08-18T13:34:02.326Z,21.73
2023-08-18T13:36:30.388Z,26.52
2023-08-18T13:38:56.933Z,21.03
2023-08-18T13:41:23.718Z,27.40
2023-08-18T13:43:57.367Z,25.30
2023-08-18T13:46:24.064Z,28.20
2023-08-18T13:48:50.966Z,27.40
2023-08-18T13:51:18.937Z,21.80
2023-08-18T13:54:17.690Z,24.42
2023-08-18T13:56:47.902Z,21.42
2023-08-18T13:59:14.543Z,16.48
2023-08-18T14:01:41.074Z,17.92
2023-08-18T14:04:07.862Z,20.13
2023-08-18T14:06:36.387Z,17.88
2023-08-18T14:09:04.364Z,17.65
2023-08-18T14:11:31.098Z,30.87
2023-08-18T14:13:59.239Z,20.30
2023-08-18T14:16:25.922Z,29.80
2023-08-18T14:19:01.659Z,22.58
2023-08-18T14:21:28.689Z,21.85
2023-08-18T14:23:59.916Z,17.13
2023-08-18T14:26:26.706Z,17.85
2023-08-18T14:29:10.461Z,20.17
2023-08-18T14:31:42.222Z,21.13
2023-08-18T14:34:09.049Z,24.30
2023-08-18T14:36:37.331Z,20.45
2023-08-18T14:39:06.685Z,22.35
2023-08-18T14:41:49.251Z,23.02
2023-08-18T16:35:04.745Z,19.65
2023-08-18T16:37:36.767Z,20.92
2023-08-18T17:39:59.974Z,19.50
2023-08-18T17:42:42.952Z,24.70
2023-08-18T17:45:50.213Z,27.10
2023-08-18T19:52:55.500Z,27.80
2023-08-18T19:55:22.026Z,44.78
2023-08-18T19:57:48.593Z,45.40
2023-08-18T20:00:15.177Z,39.95
2023-08-18T20:02:42.054Z,31.88
2023-08-18T20:05:09.194Z,35.35
2023-08-18T20:07:36.117Z,29.30
2023-08-18T20:10:04.636Z,30.08
2023-08-18T20:12:31.763Z,36.10
2023-08-18T20:14:58.907Z,32.22
2023-08-18T20:17:25.521Z,26.65
2023-08-18T20:19:52.068Z,29.98
2023-08-18T20:22:19.248Z,34.50
2023-08-18T20:24:45.912Z,33.45
2023-08-18T20:27:13.781Z,29.20
2023-08-18T20:29:40.504Z,35.08
2023-08-18T20:32:07.050Z,59.00
2023-08-18T20:34:33.561Z,65.63
2023-08-18T20:37:02.576Z,69.65
2023-08-18T20:41:55.326Z,76.43
2023-08-18T20:44:23.272Z,60.65
2023-08-18T20:46:49.753Z,54.72
2023-08-18T20:49:16.404Z,53.20
2023-08-18T20:51:43.142Z,70.35
2023-08-18T20:54:10.105Z,74.05
2023-08-18T20:56:36.796Z,73.25
2023-08-18T20:59:03.590Z,70.80
2023-08-18T21:01:31.649Z,69.88
2023-08-18T21:03:58.390Z,63.58
2023-08-18T21:06:25.190Z,53.97
2023-08-18T21:08:51.886Z,46.50
2023-08-18T21:11:18.392Z,33.33
2023-08-18T21:13:44.938Z,30.50
2023-08-18T21:16:13.430Z,31.10
2023-08-18T21:18:41.408Z,31.60
2023-08-18T21:21:07.905Z,30.48
2023-08-18T21:23:34.403Z,30.50
2023-08-18T21:26:00.937Z,28.15
2023-08-18T21:28:27.601Z,28.40
2023-08-18T21:30:57.608Z,25.20
2023-08-18T21:33:24.059Z,30.85
2023-08-18T21:35:51.842Z,28.52
2023-08-18T21:38:18.580Z,26.98
2023-08-18T21:40:49.033Z,25.90
2023-08-18T21:43:15.433Z,33.03
2023-08-18T21:45:41.913Z,37.63
2023-08-18T21:48:08.329Z,31.98
2023-08-18T21:50:36.660Z,30.75
2023-08-18T21:53:04.561Z,32.53
2023-08-18T21:55:31.407Z,30.02
2023-08-18T21:57:57.920Z,33.33
2023-08-18T22:00:24.480Z,33.78
2023-08-18T22:02:52.190Z,32.95
2023-08-18T22:05:18.675Z,27.70
2023-08-18T22:07:45.377Z,28.90
2023-08-18T22:10:13.424Z,28.30
2023-08-18T22:12:39.910Z,29.77
2023-08-18T22:15:06.953Z,31.77
2023-08-18T22:17:33.456Z,27.13
2023-08-18T22:20:00.037Z,35.85
2023-08-18T22:22:34.000Z,35.25
2023-08-18T22:25:00.659Z,36.75
2023-08-18T22:27:29.427Z,33.92
2023-08-18T22:29:55.884Z,34.13
2023-08-18T22:32:22.351Z,33.53
2023-08-18T22:34:48.879Z,31.45
2023-08-18T22:37:15.643Z,30.75
2023-08-18T22:39:42.108Z,33.78
2023-08-18T22:42:08.574Z,35.53
2023-08-18T22:44:39.161Z,34.30
2023-08-18T22:47:09.166Z,33.35
2023-08-18T22:49:35.686Z,34.28
2023-08-18T22:52:02.160Z,34.83
2023-08-18T22:54:28.732Z,38.92
2023-08-18T22:56:55.270Z,35.75
2023-08-18T22:59:21.721Z,31.83
2023-08-18T23:01:49.603Z,29.20
2023-08-18T23:04:16.241Z,46.15
2023-08-18T23:06:42.715Z,31.63
2023-08-18T23:09:09.364Z,42.45
2023-08-18T23:11:35.900Z,41.60
2023-08-18T23:14:02.368Z,34.70
2023-08-18T23:16:28.948Z,37.97
2023-08-18T23:18:56.769Z,43.78
2023-08-18T23:21:23.599Z,35.65
2023-08-18T23:23:50.266Z,38.28
2023-08-18T23:26:16.742Z,42.55
2023-08-18T23:28:43.244Z,36.08
2023-08-18T23:31:09.739Z,41.08
2023-08-18T23:33:36.363Z,43.03
2023-08-18T23:36:04.382Z,38.58
2023-08-18T23:38:33.636Z,35.53
2023-08-18T23:41:00.202Z,45.28
2023-08-18T23:43:26.886Z,35.45
2023-08-18T23:46:02.429Z,52.40
2023-08-18T23:48:30.172Z,37.28
2023-08-18T23:50:56.598Z,37.10
2023-08-18T23:53:24.379Z,34.88
2023-08-18T23:55:51.379Z,37.03
2023-08-18T23:58:18.151Z,43.40
